Time;durP1;ratioP1;P1;durP2;ratioP2;P2;SDS_P1;SDS_P2;PMS_P1;PMS_P2;Temp;Humidity;BMP_temperature;BMP_pressure;BME280_temperature;BME280_humidity;BME280_pressure;Samples;Min_cycle;Max_cycle;Signal;HPM_P1;HPM_P2
2023/07/27 00:00:59;;;;;;;5.50;1.93;;;11.40;99.90;10.80;99756;;;;580735;243;24041;-84
2023/07/27 00:03:27;;;;;;;4.00;1.77;;;11.40;99.90;10.70;99751;;;;577900;243;24065;-82
2023/07/27 00:05:58;;;;;;;2.47;1.73;;;11.30;99.90;10.70;99761;;;;581294;243;24062;-84
2023/07/27 00:08:23;;;;;;;1.70;1.60;;;11.30;99.90;10.70;99759;;;;579566;243;24075;-84
2023/07/27 00:10:51;;;;;;;4.50;2.10;;;11.30;99.90;10.70;99760;;;;580245;243;24062;-84
2023/07/27 00:13:19;;;;;;;2.77;1.60;;;11.30;99.90;10.70;99759;;;;590651;242;24069;-85
2023/07/27 00:15:47;;;;;;;3.43;1.50;;;11.20;99.90;10.70;99756;;;;580903;243;24069;-84
2023/07/27 00:18:18;;;;;;;3.27;2.20;;;11.30;99.90;10.70;99758;;;;581588;243;24056;-86
2023/07/27 00:20:43;;;;;;;2.83;1.90;;;11.30;99.90;10.70;99759;;;;580586;243;24063;-82
2023/07/27 00:23:15;;;;;;;2.30;1.83;;;11.30;99.90;10.70;99757;;;;581038;243;24126;-82
2023/07/27 00:25:39;;;;;;;4.63;1.87;;;11.30;99.90;10.70;99757;;;;580741;243;24109;-83
2023/07/27 00:28:08;;;;;;;2.10;1.90;;;11.20;99.90;10.70;99756;;;;581040;243;25098;-83
2023/07/27 00:30:36;;;;;;;2.70;2.00;;;11.20;99.90;10.70;99760;;;;580570;243;24059;-84
2023/07/27 00:33:04;;;;;;;6.77;2.10;;;11.20;99.90;10.60;99760;;;;580495;243;24055;-83
2023/07/27 00:35:31;;;;;;;6.37;1.90;;;11.20;99.90;10.60;99754;;;;581280;243;24063;-84
2023/07/27 00:37:59;;;;;;;2.60;1.83;;;11.20;99.90;10.60;99749;;;;581015;243;24054;-84
2023/07/27 00:40:27;;;;;;;3.03;2.00;;;11.10;99.90;10.50;99750;;;;580234;243;24059;-83
2023/07/27 00:42:55;;;;;;;3.57;2.27;;;11.10;99.90;10.50;99746;;;;580907;243;24054;-82
2023/07/27 00:45:26;;;;;;;5.83;2.03;;;11.10;99.90;10.50;99743;;;;580394;243;24069;-82
2023/07/27 00:47:51;;;;;;;5.33;2.20;;;11.00;99.90;10.50;99752;;;;580667;242;24102;-83
2023/07/27 00:50:20;;;;;;;3.40;2.07;;;11.00;99.90;10.40;99740;;;;580128;243;24059;-82
2023/07/27 00:52:48;;;;;;;2.73;2.30;;;11.00;99.90;10.40;99745;;;;580185;243;24065;-83
2023/07/27 00:55:15;;;;;;;3.03;1.97;;;11.00;99.90;10.40;99748;;;;579844;243;24083;-82
2023/07/27 00:57:47;;;;;;;2.83;2.20;;;11.00;99.90;10.40;99742;;;;580439;243;24118;-84
2023/07/27 01:00:16;;;;;;;6.73;2.57;;;10.90;99.90;10.40;99740;;;;577373;243;24084;-83
2023/07/27 01:02:40;;;;;;;2.77;2.47;;;10.90;99.90;10.40;99744;;;;588346;243;24067;-85
2023/07/27 01:05:08;;;;;;;5.40;2.50;;;10.90;99.90;10.40;99745;;;;589089;243;24062;-84
2023/07/27 01:07:36;;;;;;;2.80;2.10;;;10.90;99.90;10.40;99739;;;;579931;243;24079;-83
2023/07/27 01:10:04;;;;;;;2.90;2.47;;;11.00;99.90;10.50;99744;;;;580345;243;24056;-82
2023/07/27 01:12:43;;;;;;;6.73;2.37;;;11.00;99.90;10.50;99747;;;;584231;243;24031;-83
2023/07/27 01:15:11;;;;;;;4.60;2.23;;;11.00;99.90;10.50;99743;;;;569131;243;24056;-84
2023/07/27 01:18:00;;;;;;;4.30;2.00;;;11.00;99.90;10.50;99745;;;;579833;243;24103;-83
2023/07/27 01:20:42;;;;;;;2.50;1.83;;;11.00;99.90;10.50;99748;;;;579443;243;24107;-85
2023/07/27 01:23:56;;;;;;;10.93;2.20;;;11.00;99.90;10.50;99750;;;;580266;241;24055;-84
2023/07/27 01:26:42;;;;;;;2.07;1.77;;;11.00;99.90;10.50;99749;;;;587377;243;24091;-82
2023/07/27 01:29:50;;;;;;;3.77;1.63;;;11.00;99.90;10.50;99730;;;;585208;243;24040;-84
2023/07/27 01:32:18;;;;;;;5.63;1.90;;;11.00;99.90;10.50;99734;;;;581454;243;24055;-82
2023/07/27 01:34:46;;;;;;;3.37;2.43;;;11.00;99.90;10.50;99739;;;;590158;243;24048;-84
2023/07/27 01:37:14;;;;;;;3.67;1.90;;;11.00;99.90;10.50;99729;;;;581169;243;24140;-84
2023/07/27 01:39:45;;;;;;;3.87;2.20;;;11.00;99.90;10.40;99733;;;;580749;243;24105;-83
2023/07/27 01:42:16;;;;;;;3.13;2.10;;;11.00;99.90;10.40;99729;;;;580352;243;24069;-83
2023/07/27 01:44:45;;;;;;;3.50;1.90;;;11.00;99.90;10.40;99739;;;;588732;243;24069;-83
2023/07/27 01:47:09;;;;;;;6.70;2.00;;;11.00;99.90;10.40;99729;;;;579812;243;24061;-83
2023/07/27 01:49:37;;;;;;;2.10;1.80;;;11.00;99.90;10.40;99738;;;;580517;243;24058;-83
2023/07/27 01:52:05;;;;;;;4.40;2.23;;;10.90;99.90;10.30;99734;;;;579867;243;24071;-83
2023/07/27 01:54:34;;;;;;;2.30;1.47;;;10.90;99.90;10.30;99730;;;;584274;243;24146;-83
2023/07/27 01:57:02;;;;;;;2.03;1.87;;;10.80;99.90;10.30;99728;;;;580255;243;24068;-84
2023/07/27 01:59:30;;;;;;;3.50;2.13;;;10.80;99.90;10.20;99731;;;;584600;243;24066;-86
2023/07/27 02:02:01;;;;;;;2.13;1.77;;;10.80;99.90;10.20;99738;;;;581479;243;24144;-86
2023/07/27 02:04:29;;;;;;;3.30;1.93;;;10.80;99.90;10.20;99739;;;;580958;243;24072;-86
2023/07/27 02:06:58;;;;;;;2.63;2.03;;;10.70;99.90;10.10;99737;;;;580091;243;24075;-82
2023/07/27 02:09:23;;;;;;;2.03;1.60;;;10.60;99.90;10.10;99741;;;;586767;240;24126;-82
2023/07/27 02:11:51;;;;;;;2.83;1.87;;;10.70;99.90;10.00;99732;;;;580215;243;24059;-83
2023/07/27 02:14:19;;;;;;;3.37;2.37;;;10.60;99.90;10.00;99733;;;;580025;243;24099;-83
2023/07/27 02:16:50;;;;;;;2.43;2.23;;;10.60;99.90;9.90;99738;;;;579006;243;24098;-81
2023/07/27 02:19:17;;;;;;;5.50;2.30;;;10.50;99.90;9.90;99736;;;;579375;243;24105;-83
2023/07/27 02:21:48;;;;;;;3.63;2.57;;;10.50;99.90;9.90;99733;;;;588969;243;24055;-83
2023/07/27 02:24:14;;;;;;;2.50;2.30;;;10.40;99.90;9.90;99727;;;;588975;243;25119;-84
2023/07/27 02:26:42;;;;;;;2.67;2.20;;;10.40;99.90;9.80;99725;;;;580120;243;24078;-85
2023/07/27 02:29:10;;;;;;;3.30;2.60;;;10.40;99.90;9.80;99727;;;;580739;243;24065;-85
2023/07/27 02:31:38;;;;;;;6.07;2.87;;;10.40;99.90;9.90;99732;;;;580094;243;24078;-84
2023/07/27 02:34:08;;;;;;;3.70;3.40;;;10.40;99.90;9.90;99727;;;;580621;243;24071;-86
2023/07/27 02:36:33;;;;;;;3.23;2.50;;;10.40;99.90;9.90;99737;;;;590842;242;24077;-82
2023/07/27 02:39:02;;;;;;;6.00;2.60;;;10.40;99.90;9.90;99733;;;;581735;243;24086;-84
2023/07/27 02:41:29;;;;;;;2.90;2.70;;;10.50;99.90;9.90;99734;;;;581015;243;24057;-83
2023/07/27 02:43:57;;;;;;;3.00;2.60;;;10.50;99.90;10.00;99728;;;;580967;243;24058;-84
2023/07/27 02:46:25;;;;;;;5.77;2.50;;;10.50;99.90;10.00;99730;;;;581054;243;24087;-83
2023/07/27 02:48:55;;;;;;;3.23;2.80;;;10.50;99.90;10.00;99734;;;;580713;243;24056;-81
2023/07/27 02:51:24;;;;;;;3.37;2.43;;;10.50;99.90;10.00;99735;;;;580689;243;24129;-81
2023/07/27 02:53:50;;;;;;;4.30;2.40;;;10.50;99.90;10.00;99727;;;;586634;239;24074;-82
2023/07/27 02:56:19;;;;;;;3.80;2.50;;;10.50;99.90;10.00;99736;;;;580382;243;24057;-82
2023/07/27 02:58:47;;;;;;;3.23;1.63;;;10.50;99.90;10.00;99735;;;;579998;243;24102;-81
2023/07/27 03:01:15;;;;;;;4.67;2.03;;;10.50;99.90;10.00;99734;;;;580324;243;24055;-83
2023/07/27 03:03:42;;;;;;;2.03;1.90;;;10.50;99.90;10.00;99732;;;;580334;243;24075;-80
2023/07/27 03:06:10;;;;;;;3.73;2.00;;;10.50;99.90;9.90;99740;;;;580931;243;24072;-82
2023/07/27 03:08:38;;;;;;;2.63;2.00;;;10.50;99.90;9.90;99740;;;;581018;243;24131;-81
2023/07/27 03:11:06;;;;;;;3.43;1.60;;;10.50;99.90;9.90;99746;;;;579968;243;24067;-81
2023/07/27 03:13:35;;;;;;;3.57;2.07;;;10.50;99.90;9.90;99756;;;;580088;243;24082;-82
2023/07/27 03:16:03;;;;;;;2.97;2.03;;;10.40;99.90;10.00;99749;;;;580379;243;24060;-83
2023/07/27 03:18:32;;;;;;;3.00;2.10;;;10.50;99.90;10.00;99758;;;;589131;243;24078;-81
2023/07/27 03:21:05;;;;;;;1.87;1.73;;;10.50;99.90;10.00;99757;;;;588841;242;24071;-81
2023/07/27 03:23:34;;;;;;;2.03;1.83;;;10.60;99.90;10.10;99762;;;;580652;243;24056;-83
2023/07/27 03:26:02;;;;;;;2.10;1.90;;;10.60;99.90;10.10;99761;;;;589432;243;24066;-85
2023/07/27 03:28:30;;;;;;;3.73;1.80;;;10.60;99.90;10.20;99758;;;;579529;243;24121;-85
2023/07/27 03:30:59;;;;;;;2.00;1.90;;;10.70;99.90;10.20;99753;;;;580301;243;24049;-85
2023/07/27 03:33:27;;;;;;;2.67;2.37;;;10.70;99.90;10.30;99763;;;;580672;243;24093;-84
2023/07/27 03:35:55;;;;;;;2.00;1.90;;;10.80;99.90;10.30;99768;;;;580269;243;24050;-86
2023/07/27 03:38:23;;;;;;;1.73;1.63;;;10.80;99.90;10.40;99758;;;;580225;243;24071;-86
2023/07/27 03:40:51;;;;;;;7.07;2.30;;;10.90;99.90;10.40;99752;;;;580833;243;24057;-84
2023/07/27 03:43:19;;;;;;;2.57;2.07;;;10.90;99.90;10.50;99756;;;;580737;243;25124;-85
2023/07/27 03:45:46;;;;;;;2.23;2.10;;;11.00;99.90;10.60;99763;;;;580794;243;25078;-86
2023/07/27 03:48:15;;;;;;;2.20;2.00;;;11.10;99.90;10.90;99759;;;;581780;243;25183;-84
2023/07/27 03:50:46;;;;;;;2.80;2.10;;;11.30;99.90;11.70;99768;;;;581688;243;24033;-82
2023/07/27 03:53:13;;;;;;;19.73;2.33;;;12.00;99.90;12.80;99768;;;;580908;243;24059;-83
2023/07/27 03:55:41;;;;;;;5.23;2.20;;;13.00;99.90;13.80;99770;;;;581213;243;24058;-82
2023/07/27 03:58:09;;;;;;;1.90;1.80;;;14.10;99.90;14.90;99773;;;;580327;243;24054;-84
2023/07/27 04:00:37;;;;;;;3.60;1.73;;;15.20;99.90;15.90;99774;;;;580691;243;24089;-82
2023/07/27 04:03:06;;;;;;;2.00;1.60;;;17.10;99.90;16.70;99770;;;;580876;243;24066;-82
2023/07/27 04:05:34;;;;;;;1.60;1.50;;;18.00;99.90;17.50;99769;;;;580987;243;24126;-83
2023/07/27 04:08:03;;;;;;;5.53;1.43;;;17.90;99.90;18.30;99767;;;;580914;243;24106;-84
2023/07/27 04:10:33;;;;;;;1.60;1.50;;;18.80;99.90;18.90;99763;;;;580972;243;23060;-86
2023/07/27 04:12:58;;;;;;;1.77;1.33;;;19.50;99.90;19.60;99763;;;;579886;243;24064;-85
2023/07/27 04:15:27;;;;;;;2.67;1.50;;;20.40;99.90;19.50;99758;;;;580727;243;24058;-82
2023/07/27 04:17:55;;;;;;;1.40;1.30;;;20.30;99.90;18.90;99758;;;;580580;243;24047;-83
2023/07/27 04:20:23;;;;;;;4.03;1.40;;;19.90;99.90;18.50;99757;;;;580520;243;23072;-83
2023/07/27 04:22:53;;;;;;;3.97;2.00;;;19.50;99.90;18.10;99761;;;;580806;243;24078;-83
2023/07/27 04:25:19;;;;;;;5.07;1.60;;;18.40;99.90;17.50;99767;;;;587146;243;24089;-84
2023/07/27 04:27:47;;;;;;;1.63;1.53;;;18.40;99.90;17.00;99758;;;;580988;243;24115;-85
2023/07/27 04:30:15;;;;;;;2.10;1.40;;;17.90;99.90;17.20;99763;;;;580402;242;24051;-85
2023/07/27 04:32:43;;;;;;;3.93;1.73;;;17.90;99.90;17.70;99757;;;;580732;243;24027;-85
2023/07/27 04:35:11;;;;;;;1.97;1.87;;;18.30;99.90;17.70;99764;;;;580748;243;24045;-84
2023/07/27 04:37:39;;;;;;;1.50;1.30;;;18.20;99.90;18.10;99754;;;;580780;243;24035;-86
2023/07/27 04:40:11;;;;;;;3.53;1.40;;;18.70;99.90;19.40;99766;;;;581448;243;23059;-85
2023/07/27 04:42:35;;;;;;;1.63;1.53;;;19.90;99.90;21.00;99765;;;;589112;243;25135;-84
2023/07/27 04:45:06;;;;;;;2.90;1.92;;;21.60;99.90;22.50;99769;;;;575418;243;35029;-85
2023/07/27 04:47:31;;;;;;;3.20;1.53;;;23.10;99.90;23.50;99771;;;;588732;243;24060;-83
2023/07/27 04:49:59;;;;;;;3.43;1.40;;;24.30;99.90;23.60;99766;;;;580683;243;24047;-84
2023/07/27 04:52:27;;;;;;;1.73;1.63;;;24.50;99.90;24.20;99766;;;;580563;243;24041;-84
2023/07/27 04:54:54;;;;;;;1.80;1.40;;;25.10;99.90;25.00;99762;;;;580726;243;24039;-85
2023/07/27 04:57:22;;;;;;;1.60;1.50;;;26.00;99.60;26.20;99775;;;;580945;243;23089;-84
2023/07/27 04:59:50;;;;;;;1.63;1.40;;;27.20;97.20;27.40;99774;;;;582421;243;23119;-85
2023/07/27 05:02:18;;;;;;;2.73;1.60;;;28.40;93.60;28.60;99770;;;;582065;243;23061;-86
2023/07/27 05:04:50;;;;;;;1.20;1.20;;;29.60;86.60;29.20;99771;;;;581280;243;23040;-85
2023/07/27 05:07:14;;;;;;;2.08;1.30;;;30.40;81.30;29.90;99771;;;;583562;243;23135;-84
2023/07/27 05:09:42;;;;;;;2.58;1.20;;;31.00;74.40;30.10;99773;;;;581001;243;23155;-85
2023/07/27 05:12:10;;;;;;;1.30;1.20;;;31.40;72.80;30.70;99775;;;;581299;243;23056;-85
2023/07/27 05:14:38;;;;;;;1.85;1.30;;;31.90;69.30;31.30;99785;;;;581059;243;23075;-84
2023/07/27 05:17:06;;;;;;;3.12;1.20;;;32.50;67.00;31.80;99791;;;;581002;243;23136;-82
2023/07/27 05:19:33;;;;;;;1.10;1.10;;;33.00;64.40;32.40;99788;;;;585122;243;24087;-85
2023/07/27 05:22:01;;;;;;;1.08;1.05;;;33.60;61.20;32.70;99786;;;;581473;243;23048;-85
2023/07/27 05:24:29;;;;;;;1.40;1.30;;;33.90;59.70;33.10;99784;;;;581862;243;23046;-84
2023/07/27 05:26:57;;;;;;;1.45;1.35;;;34.20;58.10;33.30;99798;;;;581931;243;23050;-84
2023/07/27 05:29:25;;;;;;;2.53;0.82;;;34.40;57.80;33.70;99796;;;;581942;243;23046;-85
2023/07/27 05:31:53;;;;;;;1.58;1.08;;;34.80;56.60;34.10;99798;;;;581808;243;24086;-83
2023/07/27 05:34:21;;;;;;;1.80;1.30;;;35.20;55.60;34.60;99802;;;;581939;243;23048;-84
2023/07/27 05:36:49;;;;;;;1.90;1.50;;;35.50;54.40;34.00;99806;;;;581651;243;24049;-85
2023/07/27 05:39:17;;;;;;;2.03;1.42;;;35.10;54.80;34.40;99809;;;;589822;242;23151;-86
2023/07/27 05:41:45;;;;;;;2.67;1.48;;;35.30;54.60;35.10;99812;;;;581366;243;24136;-85
2023/07/27 05:44:13;;;;;;;4.53;2.17;;;36.50;53.50;35.80;99808;;;;581304;243;24111;-85
2023/07/27 05:46:41;;;;;;;2.33;1.60;;;36.50;53.50;36.20;99813;;;;580728;243;24081;-86
2023/07/27 05:49:09;;;;;;;2.00;1.48;;;37.00;52.50;36.60;99812;;;;580829;243;24077;-86
2023/07/27 05:51:37;;;;;;;1.50;1.42;;;37.30;51.50;37.00;99817;;;;580802;243;25154;-87
2023/07/27 05:54:05;;;;;;;1.60;1.30;;;37.60;50.70;36.90;99826;;;;583095;243;23099;-87
2023/07/27 05:56:33;;;;;;;1.37;1.23;;;37.70;50.80;37.50;99828;;;;580671;243;23068;-86
2023/07/27 05:59:01;;;;;;;1.85;1.37;;;38.10;49.90;38.00;99830;;;;580030;243;23080;-87
2023/07/27 06:01:29;;;;;;;2.33;1.33;;;38.60;49.60;38.20;99837;;;;575184;243;35013;-87
2023/07/27 06:03:57;;;;;;;1.27;1.17;;;38.90;48.60;38.60;99828;;;;580850;243;24100;-87
2023/07/27 06:06:28;;;;;;;2.22;1.27;;;39.20;48.50;38.90;99832;;;;580279;243;23054;-88
2023/07/27 06:08:52;;;;;;;5.57;1.90;;;39.60;48.40;39.60;99831;;;;579453;243;23084;-87
2023/07/27 06:11:21;;;;;;;3.20;1.98;;;40.10;47.40;39.20;99833;;;;581107;243;23065;-86
2023/07/27 06:13:49;;;;;;;2.25;1.30;;;39.40;47.10;38.60;99838;;;;581469;243;23061;-86
2023/07/27 06:16:18;;;;;;;2.55;1.45;;;39.70;47.10;39.10;99836;;;;581544;243;23053;-87
2023/07/27 06:18:46;;;;;;;6.05;1.65;;;39.70;47.10;39.10;99830;;;;581068;243;23058;-87
2023/07/27 06:21:14;;;;;;;6.25;1.60;;;39.70;46.40;38.60;99823;;;;580873;243;24081;-87
2023/07/27 06:23:45;;;;;;;1.58;1.27;;;39.30;46.60;39.20;99823;;;;581456;243;23070;-87
2023/07/27 06:26:10;;;;;;;3.00;1.55;;;39.60;46.40;39.80;99829;;;;580908;243;24084;-86
2023/07/27 06:28:38;;;;;;;9.27;1.90;;;40.20;46.20;40.40;99830;;;;581155;243;24070;-88
2023/07/27 06:31:06;;;;;;;5.68;1.60;;;41.20;44.90;40.70;99829;;;;575956;243;35170;-89
2023/07/27 06:33:35;;;;;;;5.32;1.87;;;41.60;44.40;41.20;99831;;;;581003;243;24058;-89
2023/07/27 06:36:04;;;;;;;6.60;1.77;;;41.60;44.40;41.70;99835;;;;580874;243;23060;-89
2023/07/27 06:38:31;;;;;;;2.83;1.25;;;42.00;43.70;42.20;99826;;;;580884;243;23045;-87
2023/07/27 06:41:00;;;;;;;1.95;1.35;;;42.60;43.60;42.70;99835;;;;579870;243;24091;-88
2023/07/27 06:43:28;;;;;;;6.22;1.98;;;43.10;42.60;43.00;99834;;;;581012;243;23114;-89
2023/07/27 06:45:58;;;;;;;1.60;1.50;;;43.40;42.10;43.30;99837;;;;580799;243;23064;-87
2023/07/27 06:48:27;;;;;;;2.80;1.60;;;43.70;41.70;43.50;99831;;;;579956;243;23127;-87
2023/07/27 06:50:56;;;;;;;9.43;2.30;;;44.30;39.90;44.10;99833;;;;575287;242;35121;-89
2023/07/27 06:53:21;;;;;;;1.40;1.30;;;44.50;40.50;44.00;99832;;;;580109;243;23058;-88
2023/07/27 06:55:49;;;;;;;4.15;1.52;;;44.40;40.30;44.30;99833;;;;589123;243;23089;-87
2023/07/27 06:58:17;;;;;;;4.32;1.58;;;44.80;39.70;44.60;99827;;;;580597;243;23072;-88
2023/07/27 07:00:45;;;;;;;1.58;1.45;;;45.00;39.50;45.00;99822;;;;580510;243;23050;-88
2023/07/27 07:03:13;;;;;;;1.80;1.30;;;45.40;38.20;45.20;99824;;;;576134;243;35074;-88
2023/07/27 07:05:44;;;;;;;1.67;1.58;;;45.40;38.20;45.20;99823;;;;580559;243;23046;-90
2023/07/27 07:08:09;;;;;;;1.40;1.30;;;45.50;38.10;45.40;99817;;;;580381;243;23066;-88
2023/07/27 07:10:37;;;;;;;1.37;1.17;;;45.60;37.40;45.50;99824;;;;590017;240;23395;-90
2023/07/27 07:13:08;;;;;;;11.27;1.70;;;45.90;37.80;45.80;99822;;;;581386;243;23069;-87
2023/07/27 07:15:33;;;;;;;9.73;1.70;;;46.10;37.20;45.80;99826;;;;580585;243;23085;-90
2023/07/27 07:18:05;;;;;;;3.10;1.50;;;46.00;36.30;45.60;99832;;;;581083;243;24077;-88
2023/07/27 07:20:30;;;;;;;1.10;1.10;;;46.00;36.30;44.90;99842;;;;580384;243;23074;-90
2023/07/27 07:22:57;;;;;;;2.67;1.10;;;45.50;36.30;44.50;99839;;;;581755;243;23057;-89
2023/07/27 07:25:25;;;;;;;2.75;1.30;;;45.00;37.60;44.80;99827;;;;584395;243;23060;-89
2023/07/27 07:27:56;;;;;;;2.87;1.42;;;45.00;37.90;45.30;99826;;;;581230;243;23044;-89
2023/07/27 07:30:21;;;;;;;1.35;1.23;;;45.40;38.00;46.00;99830;;;;580810;243;23152;-88
2023/07/27 07:32:52;;;;;;;1.60;1.15;;;46.00;37.10;46.60;99826;;;;581460;243;23047;-88
2023/07/27 07:35:18;;;;;;;1.00;1.00;;;46.60;36.80;47.00;99820;;;;580729;243;23098;-88
2023/07/27 07:37:49;;;;;;;3.75;1.33;;;47.10;35.90;47.00;99820;;;;590426;243;23061;-89
2023/07/27 07:40:13;;;;;;;3.15;1.12;;;47.20;34.90;46.80;99826;;;;580195;243;23091;-88
2023/07/27 07:42:44;;;;;;;2.35;1.25;;;47.10;35.10;46.70;99822;;;;580343;243;24078;-88
2023/07/27 07:45:09;;;;;;;3.10;1.25;;;46.90;34.70;46.40;99827;;;;579891;243;23077;-88
2023/07/27 07:47:37;;;;;;;2.97;1.50;;;46.70;34.10;46.30;99829;;;;591342;243;23061;-89
2023/07/27 07:50:08;;;;;;;4.68;1.48;;;46.40;34.30;46.40;99824;;;;580226;243;23151;-88
2023/07/27 07:52:33;;;;;;;3.33;1.40;;;46.50;34.30;46.20;99825;;;;588985;243;23080;-88
2023/07/27 07:55:00;;;;;;;3.15;1.50;;;46.40;34.30;46.10;99829;;;;580965;243;23068;-88
2023/07/27 07:57:28;;;;;;;1.20;1.10;;;46.40;34.60;45.90;99820;;;;582679;243;23057;-88
2023/07/27 07:59:56;;;;;;;6.18;1.17;;;46.20;34.00;45.80;99829;;;;580403;243;23101;-88
2023/07/27 08:02:24;;;;;;;1.25;1.12;;;46.00;34.20;45.60;99828;;;;580642;243;23053;-88
2023/07/27 08:04:53;;;;;;;1.23;1.12;;;45.80;33.60;46.00;99826;;;;581354;243;23065;-87
2023/07/27 08:07:24;;;;;;;1.40;1.30;;;46.00;33.60;46.60;99829;;;;581640;243;23111;-88
2023/07/27 08:09:48;;;;;;;1.70;1.20;;;46.60;33.70;46.90;99831;;;;581377;243;23082;-87
2023/07/27 08:12:16;;;;;;;1.17;1.08;;;47.00;33.00;45.60;99829;;;;581973;243;23089;-87
2023/07/27 08:14:44;;;;;;;2.12;1.15;;;46.40;32.90;45.60;99827;;;;581801;243;23054;-85
2023/07/27 08:17:12;;;;;;;1.80;1.20;;;46.00;33.60;46.10;99828;;;;581423;243;23070;-88
2023/07/27 08:19:40;;;;;;;1.52;1.35;;;46.20;33.80;45.90;99829;;;;580905;243;23045;-87
2023/07/27 08:22:08;;;;;;;1.08;1.08;;;46.20;33.70;46.10;99822;;;;581369;243;23076;-89
2023/07/27 08:24:36;;;;;;;3.03;1.10;;;46.20;33.60;46.80;99825;;;;583430;243;23116;-88
2023/07/27 08:27:08;;;;;;;3.17;1.30;;;46.80;33.30;47.40;99817;;;;580490;243;23052;-88
2023/07/27 08:29:32;;;;;;;1.20;1.12;;;47.30;33.70;48.00;99812;;;;589055;243;23053;-88
2023/07/27 08:32:00;;;;;;;1.30;1.23;;;48.00;33.00;48.10;99809;;;;580654;243;23050;-88
2023/07/27 08:34:31;;;;;;;1.95;1.52;;;48.40;32.20;48.00;99812;;;;582344;243;23066;-88
2023/07/27 08:36:56;;;;;;;2.45;1.48;;;48.30;32.30;47.80;99811;;;;581294;243;23138;-88
2023/07/27 08:39:27;;;;;;;1.55;1.37;;;48.30;32.10;45.80;99809;;;;581070;243;23080;-89
2023/07/27 08:41:55;;;;;;;1.20;1.10;;;47.30;31.70;44.10;99806;;;;583010;243;23073;-90
2023/07/27 08:44:23;;;;;;;3.50;1.60;;;45.70;32.80;43.70;99804;;;;580424;243;23092;-89
2023/07/27 08:46:52;;;;;;;4.10;1.35;;;44.70;33.80;44.40;99805;;;;589943;243;23066;-89
2023/07/27 08:51:48;;;;;;;2.95;1.30;;;44.10;34.20;43.30;99801;;;;591366;236;23067;-89
2023/07/27 08:54:13;;;;;;;4.83;1.40;;;43.80;34.40;44.50;99803;;;;569164;246;35097;-88
2023/07/27 08:56:41;;;;;;;1.08;1.08;;;44.60;34.30;45.50;99801;;;;564398;251;23099;-89
2023/07/27 08:59:08;;;;;;;2.28;1.37;;;45.50;33.40;46.00;99807;;;;574219;246;24140;-87
2023/07/27 09:01:36;;;;;;;6.55;1.40;;;46.30;32.70;46.60;99804;;;;569832;246;35250;-87
2023/07/27 09:04:05;;;;;;;1.92;1.10;;;46.90;32.20;46.80;99803;;;;574782;246;23167;-87
2023/07/27 09:06:45;;;;;;;4.55;1.25;;;47.40;31.60;47.30;99799;;;;574900;246;23103;-87
2023/07/27 09:09:12;;;;;;;4.55;1.33;;;47.90;31.50;47.80;99801;;;;574511;246;23104;-87
2023/07/27 09:11:43;;;;;;;24.42;2.75;;;48.40;31.30;48.60;99806;;;;574216;246;23096;-88
2023/07/27 09:14:11;;;;;;;7.80;1.80;;;49.20;32.10;49.10;99798;;;;574297;246;23117;-87
2023/07/27 09:16:39;;;;;;;9.05;1.83;;;49.80;31.00;49.60;99808;;;;582845;246;23108;-89
2023/07/27 09:19:04;;;;;;;8.57;2.58;;;50.30;30.70;50.10;99801;;;;574423;246;23093;-88
2023/07/27 09:21:40;;;;;;;2.58;1.30;;;50.70;30.00;50.10;99803;;;;574262;246;23095;-87
2023/07/27 09:24:18;;;;;;;3.37;1.10;;;51.00;29.70;50.20;99807;;;;574417;246;23083;-88
2023/07/27 09:26:52;;;;;;;1.62;1.52;;;51.50;29.70;50.60;99804;;;;573769;246;23110;-87
2023/07/27 09:29:19;;;;;;;2.85;1.15;;;51.50;29.60;49.70;99806;;;;574357;246;23157;-87
2023/07/27 09:31:58;;;;;;;7.30;1.70;;;51.40;29.70;47.70;99810;;;;574696;246;23140;-87
2023/07/27 09:34:28;;;;;;;1.37;0.98;;;48.20;30.30;46.30;99805;;;;574719;246;23128;-86
2023/07/27 09:36:53;;;;;;;2.30;1.17;;;48.20;30.30;45.30;99804;;;;573950;246;23113;-88
2023/07/27 09:39:24;;;;;;;6.07;1.37;;;47.10;30.70;44.20;99810;;;;574466;246;23068;-87
2023/07/27 09:41:51;;;;;;;2.97;1.35;;;45.80;30.90;42.90;99817;;;;580782;246;24161;-88
2023/07/27 09:44:20;;;;;;;1.08;1.08;;;44.40;31.90;42.20;99806;;;;574024;244;23100;-88
2023/07/27 09:46:51;;;;;;;3.97;1.60;;;43.60;33.20;41.00;99796;;;;575785;246;23131;-86
2023/07/27 09:49:18;;;;;;;3.25;0.98;;;42.50;34.40;41.50;99801;;;;574411;246;23137;-87
2023/07/27 09:51:46;;;;;;;1.33;0.82;;;42.40;34.00;42.20;99801;;;;582785;241;23097;-88
2023/07/27 09:54:17;;;;;;;0.80;0.80;;;42.90;33.50;40.40;99798;;;;573837;246;23096;-88
2023/07/27 09:56:42;;;;;;;2.87;1.20;;;41.80;33.10;37.90;99804;;;;568993;246;35119;-87
2023/07/27 09:59:10;;;;;;;3.55;1.10;;;39.80;35.30;36.10;99802;;;;573866;246;23103;-87
2023/07/27 10:01:39;;;;;;;1.52;0.90;;;36.30;38.50;34.80;99797;;;;574234;246;23173;-87
2023/07/27 10:04:07;;;;;;;3.45;0.90;;;36.20;38.40;35.60;99798;;;;573905;246;23106;-86
2023/07/27 10:06:38;;;;;;;1.45;0.88;;;36.20;39.80;37.70;99802;;;;573700;246;23158;-87
2023/07/27 10:09:02;;;;;;;3.53;1.30;;;38.00;38.90;39.50;99792;;;;573316;246;23128;-87
2023/07/27 10:11:33;;;;;;;2.22;1.00;;;40.20;36.10;39.10;99788;;;;572839;241;23105;-87
2023/07/27 10:14:20;;;;;;;2.45;1.08;;;40.20;36.00;37.70;99793;;;;572302;246;23128;-88
2023/07/27 10:17:02;;;;;;;3.92;1.30;;;39.20;36.80;35.90;99797;;;;568876;246;35223;-86
2023/07/27 10:19:45;;;;;;;2.72;1.00;;;37.70;37.90;36.10;99785;;;;573669;246;23089;-86
2023/07/27 10:22:13;;;;;;;9.95;2.17;;;37.10;39.60;37.30;99780;;;;573460;246;23121;-87
2023/07/27 10:24:53;;;;;;;5.30;1.30;;;38.00;38.40;37.40;99780;;;;573627;246;23094;-86
2023/07/27 10:27:24;;;;;;;5.53;1.80;;;38.20;38.40;38.40;99773;;;;573626;246;23099;-87
2023/07/27 10:29:52;;;;;;;10.82;1.58;;;39.00;38.20;39.40;99779;;;;573406;246;23131;-86
2023/07/27 10:32:23;;;;;;;6.47;1.10;;;40.10;37.70;40.10;99782;;;;562985;251;23145;-87
2023/07/27 10:34:54;;;;;;;3.78;0.85;;;41.00;36.20;39.20;99772;;;;578522;245;23139;-87
2023/07/27 10:37:19;;;;;;;2.62;0.90;;;40.50;35.40;37.80;99781;;;;571938;247;23101;-87
2023/07/27 10:39:54;;;;;;;5.57;0.90;;;39.40;36.60;36.50;99765;;;;571012;248;23081;-87
2023/07/27 10:42:23;;;;;;;4.37;1.23;;;38.10;36.80;35.90;99769;;;;572326;247;23093;-86
2023/07/27 10:44:54;;;;;;;3.80;1.00;;;37.20;38.40;35.80;99774;;;;571919;247;23104;-86
2023/07/27 10:47:33;;;;;;;4.28;1.00;;;36.90;39.80;35.60;99773;;;;572125;247;23100;-87
2023/07/27 10:50:05;;;;;;;2.53;0.88;;;35.30;40.20;34.30;99765;;;;572698;247;23079;-86
2023/07/27 10:52:39;;;;;;;2.05;1.00;;;35.20;40.10;33.40;99767;;;;555058;253;23181;-85
2023/07/27 10:55:07;;;;;;;0.70;0.70;;;34.20;41.40;32.70;99760;;;;552878;255;24160;-87
2023/07/27 10:57:35;;;;;;;1.25;0.93;;;32.50;43.40;32.10;99765;;;;575668;246;23104;-85
2023/07/27 11:00:08;;;;;;;4.72;0.95;;;32.40;43.40;31.40;99768;;;;571571;247;23097;-85
2023/07/27 11:02:36;;;;;;;0.85;0.82;;;31.80;44.00;30.80;99758;;;;570674;247;24154;-85
2023/07/27 11:04:59;;;;;;;0.65;0.65;;;31.10;45.30;30.50;99755;;;;572350;247;23101;-86
2023/07/27 11:07:39;;;;;;;1.37;0.98;;;30.70;46.50;29.80;99755;;;;570720;248;23124;-85
2023/07/27 11:10:17;;;;;;;0.62;0.62;;;30.10;47.30;29.00;99758;;;;581605;244;23152;-85
2023/07/27 11:12:47;;;;;;;0.93;0.80;;;29.30;48.30;28.20;99749;;;;553108;255;23158;-86
2023/07/27 11:15:21;;;;;;;1.17;0.80;;;28.50;48.80;27.50;99755;;;;571376;248;23103;-86
2023/07/27 11:17:45;;;;;;;0.70;0.70;;;27.80;50.20;26.90;99751;;;;570475;248;23103;-85
2023/07/27 11:20:13;;;;;;;5.07;0.80;;;27.20;50.70;26.40;99751;;;;570978;248;23092;-86
2023/07/27 11:22:42;;;;;;;3.13;0.83;;;26.20;52.80;25.90;99752;;;;572988;247;23111;-86
2023/07/27 11:25:14;;;;;;;2.57;0.77;;;25.70;53.50;25.50;99747;;;;571547;248;23111;-86
2023/07/27 11:27:39;;;;;;;0.70;0.70;;;25.60;53.40;25.20;99741;;;;572677;247;23091;-86